Time;durP1;ratioP1;P1;durP2;ratioP2;P2;SDS_P1;SDS_P2;PMS_P1;PMS_P2;Temp;Humidity;BMP_temperature;BMP_pressure;BME280_temperature;BME280_humidity;BME280_pressure;Samples;Min_cycle;Max_cycle;Signal;HPM_P1;HPM_P2
2021/04/14 00:01:40;;;;;;;17.07;3.20;;;1.90;87.80;;;;;;5052417;28;20214;-80
2021/04/14 00:04:06;;;;;;;20.37;3.87;;;1.80;87.70;;;;;;5052367;28;20283;-80
2021/04/14 00:06:33;;;;;;;20.87;3.77;;;1.80;87.80;;;;;;5054139;28;20580;-80
2021/04/14 00:08:59;;;;;;;18.93;3.30;;;1.80;88.00;;;;;;5053611;28;20669;-80
2021/04/14 00:11:25;;;;;;;19.37;3.97;;;1.80;88.00;;;;;;5054087;28;20175;-80
2021/04/14 00:13:51;;;;;;;11.93;3.27;;;1.80;88.00;;;;;;5052339;28;20197;-80
2021/04/14 00:16:22;;;;;;;13.23;3.27;;;1.90;88.00;;;;;;5053655;28;20266;-80
2021/04/14 00:18:48;;;;;;;18.50;4.00;;;1.90;87.80;;;;;;5053593;28;20509;-80
2021/04/14 00:21:16;;;;;;;21.30;4.40;;;1.80;87.80;;;;;;5053509;28;20674;-80
2021/04/14 00:23:41;;;;;;;9.77;3.30;;;1.90;87.80;;;;;;5052143;28;20248;-80
2021/04/14 00:26:07;;;;;;;11.27;2.80;;;1.90;87.70;;;;;;5053536;28;20177;-80
2021/04/14 00:28:33;;;;;;;28.27;3.80;;;1.80;87.90;;;;;;5053263;28;20197;-80
2021/04/14 00:31:00;;;;;;;22.03;3.87;;;1.80;88.10;;;;;;5053330;28;20169;-80
2021/04/14 00:33:25;;;;;;;12.63;3.87;;;1.90;88.60;;;;;;5052008;28;20192;-80
2021/04/14 00:35:51;;;;;;;20.50;4.73;;;1.90;88.70;;;;;;5052202;28;20184;-80
2021/04/14 00:38:18;;;;;;;18.30;4.77;;;1.90;88.80;;;;;;5053153;28;20198;-80
2021/04/14 00:40:47;;;;;;;18.57;3.13;;;1.90;88.80;;;;;;5053261;28;20653;-80
2021/04/14 00:43:24;;;;;;;22.53;5.00;;;1.90;88.80;;;;;;5051727;28;20215;-80
2021/04/14 00:45:50;;;;;;;19.93;4.17;;;1.90;89.00;;;;;;5052258;28;20521;-80
2021/04/14 00:48:16;;;;;;;17.70;4.07;;;1.80;89.20;;;;;;5051714;28;20800;-80
2021/04/14 00:50:42;;;;;;;17.07;4.33;;;1.90;89.20;;;;;;5053441;28;20256;-80
2021/04/14 00:53:09;;;;;;;16.23;3.63;;;2.00;89.50;;;;;;5052904;28;20193;-80
2021/04/14 00:55:38;;;;;;;15.97;4.03;;;2.30;89.30;;;;;;5053079;28;20225;-80
2021/04/14 00:58:08;;;;;;;15.13;4.13;;;2.30;89.00;;;;;;5053836;28;20218;-80
2021/04/14 01:00:44;;;;;;;12.00;2.90;;;2.30;88.80;;;;;;5054615;28;20160;-80
2021/04/14 01:03:22;;;;;;;16.37;3.83;;;2.30;88.50;;;;;;5057146;28;20246;-80
2021/04/14 01:05:55;;;;;;;11.30;2.73;;;2.30;88.20;;;;;;5057378;28;20218;-80
2021/04/14 01:08:20;;;;;;;12.30;3.57;;;2.40;87.60;;;;;;5055752;28;20280;-80
2021/04/14 01:10:46;;;;;;;11.73;3.20;;;2.40;87.10;;;;;;5056940;28;20192;-80
2021/04/14 01:13:13;;;;;;;12.37;2.67;;;2.50;87.00;;;;;;5056939;28;20192;-80
2021/04/14 01:15:43;;;;;;;21.27;3.67;;;2.40;86.90;;;;;;5057172;28;20706;-80
2021/04/14 01:18:12;;;;;;;13.70;3.30;;;2.30;86.90;;;;;;5056814;28;20714;-80
2021/04/14 01:20:38;;;;;;;22.00;3.90;;;2.30;87.00;;;;;;5055510;28;20204;-80
2021/04/14 01:23:05;;;;;;;14.40;3.30;;;2.20;87.40;;;;;;5056704;28;20615;-80
2021/04/14 01:25:35;;;;;;;19.00;3.80;;;2.20;87.50;;;;;;5055162;28;20722;-80
2021/04/14 01:28:06;;;;;;;19.80;3.47;;;2.10;87.40;;;;;;5056585;28;20668;-80
2021/04/14 01:30:32;;;;;;;19.80;3.63;;;2.10;87.60;;;;;;5056565;28;20160;-80
2021/04/14 01:32:57;;;;;;;17.73;3.53;;;2.20;87.90;;;;;;5055408;28;20590;-81
2021/04/14 01:35:26;;;;;;;19.80;3.43;;;2.10;88.10;;;;;;5056490;28;20175;-80
2021/04/14 01:37:52;;;;;;;14.03;3.60;;;2.10;88.30;;;;;;5055364;28;20212;-80
2021/04/14 01:40:21;;;;;;;17.80;4.00;;;2.10;88.10;;;;;;5056412;28;20251;-80
2021/04/14 01:42:47;;;;;;;18.10;3.23;;;2.00;88.10;;;;;;5055068;28;20223;-80
2021/04/14 01:45:15;;;;;;;18.03;2.80;;;2.00;88.10;;;;;;5056381;28;20173;-80
2021/04/14 01:47:41;;;;;;;15.30;4.07;;;2.00;87.80;;;;;;5054946;28;20242;-80
2021/04/14 01:50:07;;;;;;;18.87;4.50;;;2.00;88.00;;;;;;5054907;28;20620;-80
2021/04/14 01:52:33;;;;;;;14.87;3.23;;;1.90;87.70;;;;;;5056189;28;20221;-80
2021/04/14 01:54:59;;;;;;;13.30;3.67;;;1.90;87.50;;;;;;5056082;28;20169;-80
2021/04/14 01:57:25;;;;;;;13.40;3.57;;;1.80;87.90;;;;;;5056319;28;20224;-80
2021/04/14 01:59:51;;;;;;;17.20;3.47;;;1.80;88.30;;;;;;5056312;28;20252;-80
2021/04/14 02:02:16;;;;;;;18.70;3.50;;;1.80;88.60;;;;;;5054895;28;20279;-80
2021/04/14 02:04:42;;;;;;;15.17;3.47;;;1.80;88.60;;;;;;5054733;28;20576;-80
2021/04/14 02:07:08;;;;;;;14.00;3.73;;;1.80;88.50;;;;;;5054610;28;20172;-80
2021/04/14 02:09:34;;;;;;;16.87;3.40;;;1.70;88.60;;;;;;5054608;28;20189;-80
2021/04/14 02:11:59;;;;;;;14.60;3.10;;;1.70;88.60;;;;;;5055387;28;20224;-80
2021/04/14 02:14:25;;;;;;;10.90;3.63;;;1.70;88.40;;;;;;5056198;28;20538;-80
2021/04/14 02:16:51;;;;;;;13.83;3.10;;;1.70;88.30;;;;;;5054436;28;20172;-80
2021/04/14 02:19:16;;;;;;;13.83;4.30;;;1.70;88.30;;;;;;5054524;28;20177;-80
2021/04/14 02:21:42;;;;;;;13.97;3.50;;;1.50;88.40;;;;;;5055685;28;20172;-80
2021/04/14 02:24:08;;;;;;;12.23;3.33;;;1.40;88.70;;;;;;5056129;28;20173;-80
2021/04/14 02:26:33;;;;;;;19.03;3.67;;;1.30;89.00;;;;;;5055802;28;20181;-80
2021/04/14 02:28:59;;;;;;;12.53;3.73;;;1.30;89.20;;;;;;5055503;28;20207;-80
2021/04/14 02:31:30;;;;;;;21.20;4.23;;;1.40;89.30;;;;;;5055657;28;20641;-80
2021/04/14 02:34:07;;;;;;;14.00;3.63;;;1.40;89.30;;;;;;5055663;28;20188;-80
2021/04/14 02:36:33;;;;;;;15.30;3.47;;;1.40;89.50;;;;;;5054079;28;20250;-80
2021/04/14 02:38:59;;;;;;;13.77;3.63;;;1.40;89.70;;;;;;5055346;28;20202;-80
2021/04/14 02:41:25;;;;;;;17.97;3.37;;;1.40;89.70;;;;;;5055300;28;20173;-80
2021/04/14 02:43:53;;;;;;;12.70;3.43;;;1.50;89.50;;;;;;5054089;28;20212;-80
2021/04/14 02:46:20;;;;;;;11.67;3.30;;;1.50;89.40;;;;;;5055725;28;20180;-80
2021/04/14 02:48:47;;;;;;;14.43;2.97;;;1.40;89.30;;;;;;5055301;28;20662;-80
2021/04/14 02:51:12;;;;;;;13.37;3.20;;;1.40;89.20;;;;;;5053912;28;20197;-80
2021/04/14 02:53:38;;;;;;;11.23;2.43;;;1.40;89.10;;;;;;5055011;28;20196;-80
2021/04/14 02:56:04;;;;;;;15.07;2.80;;;1.50;89.10;;;;;;5055097;28;20172;-80
2021/04/14 02:58:30;;;;;;;12.77;3.20;;;1.60;89.10;;;;;;5054973;28;20223;-80
2021/04/14 03:00:55;;;;;;;18.13;2.97;;;1.60;89.00;;;;;;5055325;28;20173;-81
2021/04/14 03:03:22;;;;;;;11.50;2.67;;;1.50;88.80;;;;;;5056426;28;20200;-80
2021/04/14 03:05:49;;;;;;;14.10;2.53;;;1.50;88.70;;;;;;5055353;28;20172;-80
2021/04/14 03:08:15;;;;;;;7.03;2.70;;;1.50;88.80;;;;;;5054729;28;20188;-80
2021/04/14 03:10:40;;;;;;;11.50;2.40;;;1.40;89.00;;;;;;5054787;28;20176;-80
2021/04/14 03:13:06;;;;;;;11.80;2.60;;;1.40;88.80;;;;;;5054768;28;20180;-80
2021/04/14 03:15:37;;;;;;;11.03;3.00;;;1.40;88.70;;;;;;5055243;28;20251;-80
2021/04/14 03:18:04;;;;;;;13.00;2.43;;;1.40;89.10;;;;;;5053251;28;20164;-80
2021/04/14 03:20:29;;;;;;;11.23;3.20;;;1.40;89.10;;;;;;5054481;28;20176;-80
2021/04/14 03:22:56;;;;;;;10.50;2.60;;;1.40;89.40;;;;;;5054564;28;20202;-80
2021/04/14 03:25:24;;;;;;;7.33;2.37;;;1.40;89.60;;;;;;5053451;28;20172;-80
2021/04/14 03:27:50;;;;;;;10.67;2.67;;;1.40;89.60;;;;;;5054378;28;20192;-80
2021/04/14 03:30:17;;;;;;;8.40;3.03;;;1.40;89.80;;;;;;5053067;28;20553;-80
2021/04/14 03:32:42;;;;;;;10.30;3.33;;;1.40;89.90;;;;;;5053103;28;20245;-80
2021/04/14 03:35:10;;;;;;;9.83;2.90;;;1.40;89.90;;;;;;5054340;28;20566;-80
2021/04/14 03:37:35;;;;;;;8.70;2.67;;;1.30;89.90;;;;;;5054126;28;20180;-80
2021/04/14 03:40:01;;;;;;;8.93;3.60;;;1.30;89.90;;;;;;5054170;28;20183;-80
2021/04/14 03:42:27;;;;;;;8.40;3.00;;;1.30;89.90;;;;;;5054146;28;20215;-80
2021/04/14 03:44:55;;;;;;;11.83;2.70;;;1.30;89.90;;;;;;5054392;28;20172;-80
2021/04/14 03:47:22;;;;;;;8.97;3.07;;;1.30;90.00;;;;;;5054144;28;20175;-80
2021/04/14 03:49:50;;;;;;;10.83;3.07;;;1.30;90.10;;;;;;5054010;28;20207;-80
2021/04/14 03:52:16;;;;;;;10.87;3.13;;;1.30;90.00;;;;;;5052727;28;20200;-80
2021/04/14 03:54:41;;;;;;;12.37;2.73;;;1.20;90.00;;;;;;5053997;28;20164;-80
2021/04/14 03:57:07;;;;;;;10.13;2.70;;;1.20;90.00;;;;;;5053785;28;20172;-80
2021/04/14 03:59:33;;;;;;;15.87;3.10;;;1.20;90.00;;;;;;5054343;28;20179;-80
2021/04/14 04:01:58;;;;;;;9.40;2.90;;;1.20;90.10;;;;;;5053966;28;20696;-80
2021/04/14 04:04:24;;;;;;;11.13;3.00;;;1.20;90.20;;;;;;5053948;28;20180;-80
2021/04/14 04:06:50;;;;;;;10.43;3.10;;;1.20;90.40;;;;;;5052508;28;20182;-80
2021/04/14 04:09:16;;;;;;;8.93;3.00;;;1.20;90.40;;;;;;5054302;28;20195;-80
2021/04/14 04:11:41;;;;;;;19.63;3.43;;;1.30;90.40;;;;;;5053694;28;20164;-80
2021/04/14 04:14:07;;;;;;;14.50;3.27;;;1.30;90.40;;;;;;5053512;28;20228;-80
2021/04/14 04:16:33;;;;;;;12.73;3.23;;;1.30;90.30;;;;;;5052215;28;20267;-80
2021/04/14 04:18:58;;;;;;;11.90;3.60;;;1.30;90.20;;;;;;5053672;28;20255;-80
2021/04/14 04:21:24;;;;;;;21.30;4.07;;;1.30;90.30;;;;;;5053820;28;20649;-80
2021/04/14 04:23:50;;;;;;;12.13;2.57;;;1.30;90.30;;;;;;5053406;28;20545;-80
2021/04/14 04:26:17;;;;;;;10.23;3.07;;;1.30;90.20;;;;;;5052097;28;20649;-80
2021/04/14 04:28:42;;;;;;;7.47;3.03;;;1.30;90.20;;;;;;5053541;28;20267;-80
2021/04/14 04:31:08;;;;;;;10.10;2.90;;;1.30;90.40;;;;;;5053865;28;20207;-80
2021/04/14 04:33:34;;;;;;;14.43;3.30;;;1.30;90.50;;;;;;5053305;28;20196;-80
2021/04/14 04:36:00;;;;;;;10.20;3.20;;;1.40;90.50;;;;;;5053051;28;20182;-80
2021/04/14 04:38:26;;;;;;;14.00;3.50;;;1.60;90.60;;;;;;5053356;28;20668;-80
2021/04/14 04:40:52;;;;;;;13.20;2.97;;;1.70;90.60;;;;;;5053466;28;20172;-80
2021/04/14 04:43:18;;;;;;;16.70;4.00;;;1.80;90.50;;;;;;5053089;28;20214;-80
2021/04/14 04:45:43;;;;;;;10.83;3.33;;;1.80;90.50;;;;;;5054322;28;20237;-80
2021/04/14 04:48:09;;;;;;;15.27;4.53;;;2.00;90.40;;;;;;5053009;28;20197;-80
2021/04/14 04:50:36;;;;;;;9.67;3.67;;;2.10;90.10;;;;;;5053240;28;20177;-80
2021/04/14 04:53:09;;;;;;;11.17;3.27;;;2.30;89.90;;;;;;5053337;28;20223;-80
2021/04/14 04:55:35;;;;;;;12.43;2.87;;;2.30;89.60;;;;;;5053401;28;20552;-80
2021/04/14 04:58:01;;;;;;;16.30;3.20;;;2.30;89.60;;;;;;5052215;28;20177;-80
2021/04/14 05:00:27;;;;;;;15.83;2.97;;;2.20;89.70;;;;;;5053313;28;20181;-80
2021/04/14 05:02:54;;;;;;;10.43;3.17;;;2.20;89.70;;;;;;5053373;28;20273;-80
2021/04/14 05:05:23;;;;;;;10.23;3.00;;;2.10;89.90;;;;;;5051881;28;20657;-80
2021/04/14 05:07:49;;;;;;;10.07;2.70;;;2.10;89.90;;;;;;5053051;28;20193;-80
2021/04/14 05:10:15;;;;;;;18.23;3.20;;;2.00;89.80;;;;;;5052178;28;20183;-80
2021/04/14 05:12:41;;;;;;;14.87;4.00;;;2.00;89.90;;;;;;5053287;28;20188;-80
2021/04/14 05:15:08;;;;;;;16.07;3.20;;;2.00;90.10;;;;;;5053302;28;20173;-80
2021/04/14 05:17:34;;;;;;;11.60;4.40;;;2.00;90.10;;;;;;5051629;28;20241;-80
2021/04/14 05:19:59;;;;;;;10.20;3.63;;;2.10;90.10;;;;;;5053213;28;20576;-80
2021/04/14 05:22:29;;;;;;;16.00;3.53;;;2.10;89.90;;;;;;5052709;28;20189;-80
2021/04/14 05:24:55;;;;;;;9.10;3.37;;;2.10;89.80;;;;;;5053213;28;20169;-80
2021/04/14 05:27:20;;;;;;;8.83;3.03;;;2.00;89.50;;;;;;5052725;28;20222;-80
2021/04/14 05:29:46;;;;;;;8.73;2.93;;;2.10;89.60;;;;;;5051763;28;20182;-80
2021/04/14 05:32:11;;;;;;;15.57;3.07;;;2.10;89.60;;;;;;5051500;28;20235;-80
2021/04/14 05:34:37;;;;;;;9.57;2.67;;;2.10;89.70;;;;;;5052958;28;20221;-80
2021/04/14 05:37:03;;;;;;;12.07;3.23;;;2.20;89.60;;;;;;5051548;28;20183;-80
2021/04/14 05:39:28;;;;;;;13.27;2.73;;;2.20;89.70;;;;;;5052909;28;20176;-80
2021/04/14 05:41:54;;;;;;;10.27;3.37;;;2.20;89.40;;;;;;5052680;28;20190;-80
2021/04/14 05:44:19;;;;;;;16.70;3.10;;;2.30;89.40;;;;;;5052620;28;20676;-80
2021/04/14 05:46:45;;;;;;;8.03;2.70;;;2.30;89.50;;;;;;5052945;28;20196;-80
2021/04/14 05:49:10;;;;;;;8.63;2.70;;;2.40;89.50;;;;;;5055791;28;20567;-80
2021/04/14 05:51:36;;;;;;;10.97;2.30;;;2.50;89.30;;;;;;5056239;28;20263;-80
2021/04/14 05:54:02;;;;;;;9.30;2.80;;;2.50;89.00;;;;;;5056126;28;20194;-80
2021/04/14 05:56:29;;;;;;;8.87;2.70;;;2.60;89.00;;;;;;5054798;28;20176;-80
2021/04/14 05:58:56;;;;;;;6.97;2.30;;;2.70;88.90;;;;;;5056253;28;20181;-80
2021/04/14 06:01:24;;;;;;;4.60;1.70;;;2.70;89.00;;;;;;5056045;28;20208;-80
2021/04/14 06:03:50;;;;;;;7.10;1.80;;;2.80;88.70;;;;;;5055855;28;20203;-80
2021/04/14 06:06:17;;;;;;;11.27;2.70;;;2.80;88.30;;;;;;5056050;28;20181;-80
2021/04/14 06:08:43;;;;;;;10.03;2.20;;;2.80;87.80;;;;;;5056260;28;20690;-80
2021/04/14 06:11:09;;;;;;;7.00;2.30;;;2.90;87.80;;;;;;5055961;28;20270;-80
2021/04/14 06:13:35;;;;;;;4.97;2.17;;;3.10;87.70;;;;;;5054476;28;20281;-80
2021/04/14 06:16:01;;;;;;;11.47;3.23;;;3.20;87.30;;;;;;5055953;28;20175;-80
2021/04/14 06:18:27;;;;;;;7.77;3.23;;;3.20;87.10;;;;;;5055887;28;20648;-80
2021/04/14 06:20:53;;;;;;;12.93;2.80;;;3.30;87.20;;;;;;5057521;28;20176;-81
2021/04/14 06:23:20;;;;;;;16.13;2.53;;;3.30;87.20;;;;;;5056968;28;20546;-80
2021/04/14 06:28:27;;;;;;;12.03;2.47;;;3.60;86.70;;;;;;5056136;28;20192;-80
2021/04/14 06:30:54;;;;;;;8.37;2.60;;;3.70;86.00;;;;;;5055480;28;20178;-80
2021/04/14 06:33:22;;;;;;;5.53;2.10;;;3.70;85.50;;;;;;5054443;28;20199;-79
2021/04/14 06:35:48;;;;;;;6.70;2.43;;;3.90;85.70;;;;;;5054201;28;20705;-80
2021/04/14 06:38:17;;;;;;;8.40;1.83;;;4.00;86.00;;;;;;5054146;28;20217;-80
2021/04/14 06:43:46;;;;;;;10.00;2.40;;;4.00;85.80;;;;;;5055389;28;20263;-80
2021/04/14 06:46:22;;;;;;;11.27;2.77;;;4.00;85.60;;;;;;5055575;28;20164;-80
2021/04/14 06:48:57;;;;;;;10.73;2.40;;;3.90;85.30;;;;;;5055709;28;20248;-80
2021/04/14 06:51:35;;;;;;;5.80;2.13;;;3.90;85.90;;;;;;5053850;28;20184;-80
2021/04/14 06:54:26;;;;;;;10.53;2.10;;;4.00;85.90;;;;;;5055876;28;20225;-80
2021/04/14 06:56:59;;;;;;;7.50;1.93;;;4.00;86.20;;;;;;5055052;28;20161;-80
2021/04/14 06:59:27;;;;;;;13.93;2.40;;;4.10;86.50;;;;;;5053567;28;20260;-80
2021/04/14 07:02:02;;;;;;;12.13;2.43;;;4.10;86.60;;;;;;5055089;28;20179;-80
2021/04/14 07:04:44;;;;;;;7.83;2.37;;;4.10;86.50;;;;;;5054971;28;20171;-80
2021/04/14 07:07:18;;;;;;;8.07;2.27;;;4.10;86.60;;;;;;5055114;28;20174;-79
2021/04/14 07:09:46;;;;;;;6.67;1.87;;;3.90;86.20;;;;;;5054809;28;20257;-80
2021/04/14 07:12:17;;;;;;;7.20;1.70;;;3.80;86.00;;;;;;5054737;28;20222;-80
2021/04/14 07:14:45;;;;;;;5.30;1.80;;;3.70;86.10;;;;;;5054943;28;20164;-80
2021/04/14 07:17:16;;;;;;;9.00;1.70;;;3.70;86.40;;;;;;5054884;28;20658;-80
2021/04/14 07:20:08;;;;;;;4.20;1.60;;;3.60;86.40;;;;;;5053168;28;20176;-80
2021/04/14 07:22:39;;;;;;;6.53;2.17;;;3.60;86.40;;;;;;5053100;28;20688;-80
2021/04/14 07:25:10;;;;;;;4.90;1.87;;;3.60;86.40;;;;;;5053256;28;20175;-80
2021/04/14 07:27:59;;;;;;;9.03;1.60;;;3.70;86.30;;;;;;5054220;28;20251;-80
2021/04/14 07:30:40;;;;;;;5.67;1.47;;;3.70;86.40;;;;;;5053058;28;20205;-80
2021/04/14 07:33:20;;;;;;;4.17;1.60;;;3.70;86.60;;;;;;5054341;28;20597;-80
2021/04/14 07:36:07;;;;;;;9.23;2.93;;;3.80;86.90;;;;;;5054529;28;20522;-80
2021/04/14 07:38:46;;;;;;;10.90;2.47;;;4.00;86.80;;;;;;5054435;28;20175;-80
2021/04/14 07:41:42;;;;;;;6.63;1.77;;;4.10;86.60;;;;;;5054446;28;20564;-80
2021/04/14 07:44:17;;;;;;;3.70;1.57;;;4.30;86.70;;;;;;5043571;28;20254;-80
2021/04/14 07:46:46;;;;;;;5.77;2.00;;;4.30;86.60;;;;;;5052742;28;20174;-80
2021/04/14 07:49:12;;;;;;;6.33;1.83;;;4.50;87.00;;;;;;5052657;28;20256;-80
2021/04/14 07:51:38;;;;;;;12.70;2.07;;;4.60;85.60;;;;;;5052800;28;20176;-80
2021/04/14 07:54:13;;;;;;;7.27;2.30;;;4.80;85.10;;;;;;5053940;28;20693;-80
2021/04/14 07:56:40;;;;;;;15.50;2.67;;;4.90;85.10;;;;;;5054077;28;20213;-80
2021/04/14 07:59:10;;;;;;;12.00;2.60;;;5.00;84.80;;;;;;5052702;28;20528;-80
2021/04/14 08:01:37;;;;;;;12.63;2.40;;;5.10;84.70;;;;;;5053825;28;20255;-80
2021/04/14 08:04:21;;;;;;;10.30;2.17;;;5.20;83.30;;;;;;5053866;28;20689;-79
2021/04/14 08:06:47;;;;;;;8.37;2.07;;;5.20;82.70;;;;;;5057039;28;20633;-79
2021/04/14 08:09:20;;;;;;;14.23;2.27;;;5.30;81.90;;;;;;5056079;28;20249;-79
2021/04/14 08:11:50;;;;;;;21.67;2.63;;;5.50;82.00;;;;;;5055209;28;20172;-79
2021/04/14 08:14:27;;;;;;;18.03;2.70;;;5.60;82.50;;;;;;5057363;28;20179;-80
2021/04/14 08:16:54;;;;;;;12.53;2.20;;;5.60;81.40;;;;;;5056632;28;20156;-80
2021/04/14 08:19:29;;;;;;;13.23;2.10;;;5.70;81.50;;;;;;5056402;28;20649;-79
2021/04/14 08:22:00;;;;;;;8.20;1.80;;;5.80;80.40;;;;;;5054698;28;20168;-79
2021/04/14 08:24:31;;;;;;;13.83;3.87;;;5.70;78.40;;;;;;5054070;28;20194;-79
2021/04/14 08:27:14;;;;;;;11.20;2.10;;;5.80;79.00;;;;;;5054340;28;20165;-79
2021/04/14 08:29:40;;;;;;;10.13;2.13;;;5.90;79.60;;;;;;5055339;28;20215;-80
2021/04/14 08:32:14;;;;;;;12.13;2.33;;;6.10;77.70;;;;;;5055813;28;20197;-80
2021/04/14 08:34:52;;;;;;;11.27;2.30;;;6.20;78.50;;;;;;5053599;28;20202;-79
2021/04/14 08:37:20;;;;;;;7.00;1.90;;;6.10;77.70;;;;;;5052511;28;20177;-80
2021/04/14 08:39:54;;;;;;;11.60;2.90;;;6.20;75.30;;;;;;5053481;28;20180;-79
2021/04/14 08:42:19;;;;;;;10.53;2.03;;;6.30;76.60;;;;;;5055300;28;20222;-79
2021/04/14 08:44:47;;;;;;;9.47;1.77;;;6.50;77.40;;;;;;5052944;28;20261;-79
2021/04/14 08:47:13;;;;;;;11.30;2.23;;;6.80;77.00;;;;;;5054263;28;20231;-79
2021/04/14 08:49:40;;;;;;;6.43;1.87;;;6.70;75.80;;;;;;5053724;28;20593;-79
2021/04/14 08:52:12;;;;;;;10.43;2.27;;;6.50;75.90;;;;;;5057444;28;20193;-80
2021/04/14 08:54:38;;;;;;;9.20;2.37;;;6.70;78.00;;;;;;5056560;28;20165;-79
2021/04/14 08:57:06;;;;;;;10.90;2.27;;;6.90;77.40;;;;;;5053342;28;20189;-79
2021/04/14 08:59:32;;;;;;;8.10;2.17;;;6.90;75.30;;;;;;5053498;28;20171;-79
2021/04/14 09:01:58;;;;;;;6.13;1.97;;;6.90;72.90;;;;;;5053505;28;20193;-79
2021/04/14 09:04:25;;;;;;;5.70;1.87;;;6.90;74.70;;;;;;5052785;28;20179;-80
2021/04/14 09:06:58;;;;;;;13.57;2.60;;;7.00;72.30;;;;;;5054929;28;20179;-80
2021/04/14 09:09:29;;;;;;;8.73;2.40;;;6.90;71.90;;;;;;5054982;28;20201;-80
2021/04/14 09:12:03;;;;;;;8.53;1.90;;;6.80;72.60;;;;;;5055665;28;20166;-79
2021/04/14 09:14:31;;;;;;;11.60;2.07;;;6.80;72.20;;;;;;5056515;28;20171;-79
2021/04/14 09:16:59;;;;;;;5.20;2.40;;;6.80;72.10;;;;;;5054936;28;20176;-79
2021/04/14 09:19:30;;;;;;;10.77;2.53;;;6.70;73.50;;;;;;5055127;28;20185;-79
2021/04/14 09:21:59;;;;;;;6.30;1.90;;;6.70;72.90;;;;;;5055309;28;20264;-79
2021/04/14 09:24:31;;;;;;;7.43;2.10;;;6.70;73.40;;;;;;5057512;28;20707;-80
2021/04/14 09:26:58;;;;;;;7.30;1.90;;;6.60;73.10;;;;;;5057187;28;20643;-80
2021/04/14 09:29:35;;;;;;;8.93;2.10;;;6.50;72.80;;;;;;5057189;28;20206;-80
2021/04/14 09:32:12;;;;;;;10.97;2.00;;;6.70;72.00;;;;;;5056908;28;20163;-79
2021/04/14 09:34:41;;;;;;;13.90;2.53;;;6.90;71.00;;;;;;5057516;28;20156;-79
2021/04/14 09:37:13;;;;;;;7.97;2.03;;;7.30;70.50;;;;;;5059595;28;20221;-79
2021/04/14 09:40:03;;;;;;;6.83;1.83;;;7.70;68.50;;;;;;5058616;28;20175;-80
2021/04/14 09:42:34;;;;;;;6.47;2.40;;;7.80;66.10;;;;;;5059009;28;20215;-80
2021/04/14 09:45:27;;;;;;;8.60;2.03;;;7.70;64.30;;;;;;5060460;28;20180;-80
2021/04/14 09:47:55;;;;;;;6.80;1.50;;;7.70;65.80;;;;;;5059837;28;20278;-80
2021/04/14 09:50:37;;;;;;;4.83;1.70;;;7.80;61.60;;;;;;5060300;28;20172;-80
2021/04/14 09:53:18;;;;;;;14.53;2.20;;;7.80;62.00;;;;;;5059527;28;20188;-80
2021/04/14 09:55:50;;;;;;;4.33;1.60;;;7.70;62.00;;;;;;5059181;28;20165;-79
2021/04/14 09:58:26;;;;;;;5.53;1.80;;;7.80;62.80;;;;;;5058936;28;20164;-79
2021/04/14 10:00:56;;;;;;;5.83;1.80;;;8.10;61.50;;;;;;5058028;28;20537;-79
2021/04/14 10:03:27;;;;;;;7.23;1.83;;;8.30;61.80;;;;;;5058399;28;20200;-80
2021/04/14 10:05:54;;;;;;;8.87;2.23;;;8.20;60.70;;;;;;5059503;28;20192;-80
2021/04/14 10:08:21;;;;;;;5.77;1.90;;;8.00;59.80;;;;;;5056358;28;20779;-79
2021/04/14 10:10:48;;;;;;;7.77;1.87;;;7.90;62.20;;;;;;5054857;28;20175;-80
2021/04/14 10:13:17;;;;;;;8.00;2.43;;;7.90;62.70;;;;;;5055861;28;20188;-80
2021/04/14 10:15:45;;;;;;;5.63;1.80;;;8.00;62.50;;;;;;5056623;28;20194;-80
2021/04/14 10:18:32;;;;;;;6.90;2.03;;;7.90;59.10;;;;;;5055642;28;20230;-80
2021/04/14 10:21:17;;;;;;;4.43;1.97;;;7.90;61.00;;;;;;5056802;28;20532;-80
2021/04/14 10:23:44;;;;;;;10.47;2.10;;;7.90;60.20;;;;;;5055328;28;20203;-80
2021/04/14 10:26:12;;;;;;;3.73;1.30;;;7.90;60.20;;;;;;5054946;28;20523;-80
2021/04/14 10:28:43;;;;;;;6.03;1.70;;;7.80;59.40;;;;;;5056371;28;20228;-80
2021/04/14 10:31:14;;;;;;;5.17;1.70;;;7.90;61.30;;;;;;5056369;28;20259;-80
2021/04/14 10:33:42;;;;;;;4.03;1.70;;;7.90;60.90;;;;;;5054172;28;20207;-80
2021/04/14 10:36:24;;;;;;;5.33;1.67;;;7.90;60.30;;;;;;5055080;28;20180;-80
2021/04/14 10:38:51;;;;;;;6.70;1.63;;;8.00;62.00;;;;;;5056799;28;20167;-80
2021/04/14 10:41:34;;;;;;;11.63;1.80;;;8.00;62.60;;;;;;5054488;28;20191;-80
2021/04/14 10:44:02;;;;;;;6.70;1.57;;;8.10;63.40;;;;;;5054586;28;20216;-80
2021/04/14 10:46:32;;;;;;;4.47;1.43;;;8.30;64.10;;;;;;5038292;28;20190;-80
2021/04/14 10:49:22;;;;;;;7.00;1.70;;;8.20;62.90;;;;;;5055208;28;20199;-80
2021/04/14 10:51:52;;;;;;;6.97;1.80;;;7.90;65.00;;;;;;5054486;28;20172;-79
2021/04/14 10:54:23;;;;;;;5.77;1.70;;;7.80;66.20;;;;;;5072620;22;20225;-84
2021/04/14 10:57:03;;;;;;;4.70;1.83;;;7.80;66.40;;;;;;5035074;28;20244;-85
2021/04/14 10:59:32;;;;;;;4.40;1.60;;;7.80;68.30;;;;;;5034816;28;20627;-84
2021/04/14 11:01:59;;;;;;;7.47;1.87;;;8.30;68.90;;;;;;5034999;28;20175;-83
2021/04/14 11:04:52;;;;;;;6.23;2.00;;;8.70;66.80;;;;;;5034632;28;20193;-83
2021/04/14 11:07:22;;;;;;;9.37;1.90;;;8.40;64.70;;;;;;5032149;28;20181;-83
2021/04/14 11:09:50;;;;;;;6.53;1.70;;;8.40;65.10;;;;;;5016947;28;20200;-84
2021/04/14 11:12:20;;;;;;;2.57;1.43;;;8.70;65.00;;;;;;5034928;28;20175;-84
2021/04/14 11:14:52;;;;;;;3.13;1.57;;;9.00;64.70;;;;;;5017038;28;20674;-84
2021/04/14 11:17:29;;;;;;;8.43;1.60;;;9.40;65.70;;;;;;5034753;28;20183;-84
2021/04/14 11:20:08;;;;;;;8.17;2.00;;;9.60;60.10;;;;;;5034636;28;20212;-84
2021/04/14 11:22:46;;;;;;;8.83;1.63;;;9.60;59.20;;;;;;5016827;28;20160;-84
2021/04/14 11:25:34;;;;;;;4.43;1.47;;;9.70;60.80;;;;;;5034397;28;20193;-85
2021/04/14 11:28:10;;;;;;;5.70;1.60;;;9.50;61.60;;;;;;5016719;28;20727;-86
2021/04/14 11:30:48;;;;;;;4.13;1.53;;;8.90;62.50;;;;;;5034339;28;20267;-83
2021/04/14 11:33:14;;;;;;;6.63;1.60;;;8.60;64.30;;;;;;5034923;28;20553;-85
2021/04/14 11:35:47;;;;;;;6.70;1.60;;;8.60;63.80;;;;;;5016919;28;20189;-83
2021/04/14 11:38:31;;;;;;;5.73;1.70;;;8.60;63.90;;;;;;5034467;28;20679;-82
2021/04/14 11:40:57;;;;;;;3.60;1.30;;;8.60;63.30;;;;;;5034170;28;20204;-83
2021/04/14 11:43:28;;;;;;;1.63;1.27;;;8.80;65.50;;;;;;5034039;28;21533;-83
2021/04/14 11:46:01;;;;;;;5.63;2.47;;;9.20;62.60;;;;;;5034240;28;20615;-82
2021/04/14 11:48:35;;;;;;;5.53;1.60;;;9.10;62.00;;;;;;5017468;28;20207;-85
2021/04/14 11:51:13;;;;;;;6.60;1.70;;;9.00;61.60;;;;;;5035295;28;20153;-84
2021/04/14 11:53:52;;;;;;;3.33;1.20;;;9.10;62.50;;;;;;5016312;28;20328;-83
2021/04/14 11:56:30;;;;;;;5.37;1.30;;;9.10;62.70;;;;;;5034063;28;20599;-83
2021/04/14 11:58:56;;;;;;;8.10;1.30;;;9.30;62.30;;;;;;5034098;28;20192;-83
2021/04/14 12:01:28;;;;;;;6.93;2.00;;;9.60;61.00;;;;;;5035310;28;20642;-84
2021/04/14 12:03:53;;;;;;;7.40;1.50;;;9.90;60.90;;;;;;5017700;28;20206;-83
2021/04/14 12:06:20;;;;;;;4.30;1.30;;;9.90;61.50;;;;;;5035746;28;20204;-84
2021/04/14 12:08:46;;;;;;;5.63;1.37;;;10.10;58.40;;;;;;5033515;28;20258;-82
2021/04/14 12:11:19;;;;;;;3.93;1.20;;;10.50;58.50;;;;;;5033661;28;20226;-82
2021/04/14 12:13:45;;;;;;;7.17;1.10;;;10.80;57.80;;;;;;5016230;28;20192;-83
2021/04/14 12:16:11;;;;;;;3.47;1.40;;;11.30;59.00;;;;;;5033583;28;20235;-83
2021/04/14 12:18:37;;;;;;;5.90;1.50;;;11.60;56.70;;;;;;5034915;28;20188;-83
2021/04/14 12:21:03;;;;;;;2.93;1.20;;;11.60;58.20;;;;;;5034956;28;20181;-83
2021/04/14 12:23:28;;;;;;;7.90;1.50;;;11.50;57.80;;;;;;5034717;28;20573;-86
2021/04/14 12:25:54;;;;;;;6.30;1.37;;;11.80;56.50;;;;;;5034819;28;20634;-85
2021/04/14 12:28:20;;;;;;;9.40;1.50;;;11.80;56.20;;;;;;5016903;28;20211;-84
2021/04/14 12:30:46;;;;;;;7.13;1.20;;;11.80;57.50;;;;;;5034641;28;20173;-86
2021/04/14 12:33:11;;;;;;;4.53;1.50;;;11.70;54.90;;;;;;5015822;28;20176;-83
2021/04/14 12:35:37;;;;;;;3.17;1.30;;;11.50;54.80;;;;;;5033541;28;20172;-83
2021/04/14 12:38:04;;;;;;;4.00;1.40;;;11.30;55.10;;;;;;5033697;28;20230;-83
2021/04/14 12:40:31;;;;;;;2.07;1.00;;;11.20;55.40;;;;;;5015693;28;20654;-83
2021/04/14 12:42:57;;;;;;;5.13;1.33;;;10.40;58.90;;;;;;5015455;28;20642;-83
2021/04/14 12:45:31;;;;;;;3.73;1.80;;;9.20;67.40;;;;;;5033064;28;20203;-82
2021/04/14 12:47:57;;;;;;;8.57;1.80;;;8.30;72.50;;;;;;5033073;28;20202;-82
2021/04/14 12:50:23;;;;;;;4.33;1.60;;;7.20;73.30;;;;;;5033403;28;20160;-82
2021/04/14 12:52:52;;;;;;;6.07;1.40;;;6.90;74.60;;;;;;5033071;28;20181;-82
2021/04/14 12:55:25;;;;;;;5.53;1.87;;;6.30;76.40;;;;;;5015109;28;20212;-83
2021/04/14 12:57:54;;;;;;;3.77;1.73;;;6.00;77.50;;;;;;5018441;28;20196;-83
2021/04/14 13:00:22;;;;;;;3.07;1.50;;;6.00;78.20;;;;;;5019510;28;20185;-84
2021/04/14 13:02:51;;;;;;;4.70;2.00;;;6.10;78.10;;;;;;5037133;28;20171;-84
2021/04/14 13:05:19;;;;;;;4.03;1.73;;;5.90;78.20;;;;;;5019231;28;20214;-84
2021/04/14 13:07:55;;;;;;;4.07;1.70;;;5.70;78.10;;;;;;5019162;28;20175;-84